Airfield :
LOGIN :

Register | Disclaimer

   EN    FR    IT 

 










Legend :    VFR   Marginal VFR   IFR   Intensive IFR   Very Intensive IFR
Visi :
Ceiling :
>= 8 km
>= 3000ft
5 to 8 km
1000 to 3000 ft
1500m to 5 km
500 to 1000 ft
800 to 1500m
200 to 500 ft
< 800m
< 200 ft
Symbols :   Thunderstorms  Fog  Heavy snow  Heavy precipitations  Wind > 20 kt
SIGMETs :     Misc.  Thunderstorms  Icing  Turbulence  Mountain Waves  Volcanic Ashes






- Airport Elevation : 341 ft


EPMO - Modlin

CURRENT METAR :
  • 180900Z VRB02KT 4000 BR BKN004 06/06 Q1020

EXPIRED METARs :
  • 180830Z 01003KT 330V090 3000 BR BKN002 06/06 Q1020
  • 180800Z VRB02KT 1200 R08/1000U BR BKN002 06/06 Q1020
  • 180730Z VRB02KT 0400 FG OVC002 06/06 Q1020
  • 180700Z VRB01KT 0300 R08/0400N FG OVC001 05/05 Q1020
  • 180630Z VRB01KT 0250 R08/0250N -DZ FG OVC001 05/05 Q1020

TAF AMD TAF EPMO
Valid from the 18 at 07:00 until the 19 at 06:00 UTC


180713Z 1807/1906 VRB03KT 0300 FG OVC001
BECMG 1807/1809 1500 BR BKN004 OVC007
BECMG 1809/1811 9999 BKN020
PROB40
TEMPO 1815/1823 -SHRA BKN030CB
TEMPO 1823/1906 3000 BR
PROB40
TEMPO 1823/1906 0600 FG BKN002



MET'MAP, your aeronautical weather chart ! - Copyright ORBIFLY December 2007 - Disclaimer

ORBIFLY MET'MAP TEAM :

Programming & Development : Alexandra Zaïnal
Concept & original design : Baudouin d'Aumeries
Assistance for programming : Marc-Olivier Méhu
Technical & hardware support : Manuel Goepfert

Contact : metmap@orbifly.com




SOURCES & CREDITS :

   NOAA